sensor_id;sensor_type;location;lat;lon;timestamp;P1;durP1;ratioP1;P2;durP2;ratioP2
20454;SDS011;10386;54.314;10.022;2023-03-03T00:00:03;40.13;;;16.93;;
20454;SDS011;10386;54.314;10.022;2023-03-03T00:02:31;38.43;;;15.70;;
20454;SDS011;10386;54.314;10.022;2023-03-03T00:04:58;34.03;;;15.53;;
20454;SDS011;10386;54.314;10.022;2023-03-03T00:07:25;33.17;;;15.27;;
20454;SDS011;10386;54.314;10.022;2023-03-03T00:09:51;34.07;;;15.30;;
20454;SDS011;10386;54.314;10.022;2023-03-03T00:12:20;34.47;;;15.20;;
20454;SDS011;10386;54.314;10.022;2023-03-03T00:14:49;37.90;;;15.80;;
20454;SDS011;10386;54.314;10.022;2023-03-03T00:17:21;38.27;;;16.03;;
20454;SDS011;10386;54.314;10.022;2023-03-03T00:19:52;35.80;;;15.43;;
20454;SDS011;10386;54.314;10.022;2023-03-03T00:22:31;36.10;;;14.83;;
20454;SDS011;10386;54.314;10.022;2023-03-03T00:27:44;36.47;;;15.70;;
20454;SDS011;10386;54.314;10.022;2023-03-03T00:30:16;39.87;;;16.53;;
20454;SDS011;10386;54.314;10.022;2023-03-03T00:32:53;39.93;;;16.70;;
20454;SDS011;10386;54.314;10.022;2023-03-03T00:35:28;40.33;;;15.90;;
20454;SDS011;10386;54.314;10.022;2023-03-03T00:38:09;36.10;;;15.43;;
20454;SDS011;10386;54.314;10.022;2023-03-03T00:40:40;38.93;;;16.37;;
20454;SDS011;10386;54.314;10.022;2023-03-03T00:43:27;34.10;;;14.30;;
20454;SDS011;10386;54.314;10.022;2023-03-03T00:46:01;34.07;;;14.47;;
20454;SDS011;10386;54.314;10.022;2023-03-03T00:48:29;32.50;;;14.33;;
20454;SDS011;10386;54.314;10.022;2023-03-03T00:51:07;36.67;;;14.43;;
20454;SDS011;10386;54.314;10.022;2023-03-03T00:53:39;31.00;;;13.93;;
20454;SDS011;10386;54.314;10.022;2023-03-03T00:56:06;31.57;;;13.93;;
20454;SDS011;10386;54.314;10.022;2023-03-03T00:58:32;33.53;;;15.23;;
20454;SDS011;10386;54.314;10.022;2023-03-03T01:00:59;32.47;;;13.33;;
20454;SDS011;10386;54.314;10.022;2023-03-03T01:03:26;35.30;;;14.30;;
20454;SDS011;10386;54.314;10.022;2023-03-03T01:05:53;33.53;;;13.80;;
20454;SDS011;10386;54.314;10.022;2023-03-03T01:08:20;33.10;;;14.20;;
20454;SDS011;10386;54.314;10.022;2023-03-03T01:10:52;26.90;;;12.27;;
20454;SDS011;10386;54.314;10.022;2023-03-03T01:13:21;28.20;;;13.47;;
20454;SDS011;10386;54.314;10.022;2023-03-03T01:15:51;28.43;;;12.90;;
20454;SDS011;10386;54.314;10.022;2023-03-03T01:18:18;27.33;;;12.67;;
20454;SDS011;10386;54.314;10.022;2023-03-03T01:20:45;27.10;;;13.37;;
20454;SDS011;10386;54.314;10.022;2023-03-03T01:23:12;27.83;;;12.13;;
20454;SDS011;10386;54.314;10.022;2023-03-03T01:25:39;27.10;;;12.90;;
20454;SDS011;10386;54.314;10.022;2023-03-03T01:28:06;26.53;;;13.17;;
20454;SDS011;10386;54.314;10.022;2023-03-03T01:30:33;30.97;;;12.57;;
20454;SDS011;10386;54.314;10.022;2023-03-03T01:33:00;26.97;;;12.37;;
20454;SDS011;10386;54.314;10.022;2023-03-03T01:35:27;27.87;;;12.77;;
20454;SDS011;10386;54.314;10.022;2023-03-03T01:37:55;25.77;;;11.73;;
20454;SDS011;10386;54.314;10.022;2023-03-03T01:40:23;30.50;;;13.27;;
20454;SDS011;10386;54.314;10.022;2023-03-03T01:42:52;29.30;;;12.60;;
20454;SDS011;10386;54.314;10.022;2023-03-03T01:45:27;29.13;;;12.17;;
20454;SDS011;10386;54.314;10.022;2023-03-03T01:50:33;26.63;;;11.63;;
20454;SDS011;10386;54.314;10.022;2023-03-03T01:53:05;27.97;;;11.83;;
20454;SDS011;10386;54.314;10.022;2023-03-03T01:55:42;31.73;;;12.90;;
20454;SDS011;10386;54.314;10.022;2023-03-03T02:01:16;21.80;;;11.17;;
20454;SDS011;10386;54.314;10.022;2023-03-03T02:03:47;23.20;;;10.77;;
20454;SDS011;10386;54.314;10.022;2023-03-03T02:06:17;32.17;;;13.13;;
20454;SDS011;10386;54.314;10.022;2023-03-03T02:11:20;29.53;;;12.23;;
20454;SDS011;10386;54.314;10.022;2023-03-03T02:13:47;23.53;;;11.53;;
20454;SDS011;10386;54.314;10.022;2023-03-03T02:16:14;23.90;;;11.10;;
20454;SDS011;10386;54.314;10.022;2023-03-03T02:18:41;25.50;;;12.20;;
20454;SDS011;10386;54.314;10.022;2023-03-03T02:21:13;30.23;;;12.50;;
20454;SDS011;10386;54.314;10.022;2023-03-03T02:26:43;23.83;;;11.23;;
20454;SDS011;10386;54.314;10.022;2023-03-03T02:29:11;27.73;;;11.90;;
20454;SDS011;10386;54.314;10.022;2023-03-03T02:31:38;24.77;;;11.40;;
20454;SDS011;10386;54.314;10.022;2023-03-03T02:34:05;27.57;;;11.90;;
20454;SDS011;10386;54.314;10.022;2023-03-03T02:36:33;27.30;;;12.67;;
20454;SDS011;10386;54.314;10.022;2023-03-03T02:44:26;28.03;;;11.60;;
20454;SDS011;10386;54.314;10.022;2023-03-03T02:46:55;28.17;;;10.87;;
20454;SDS011;10386;54.314;10.022;2023-03-03T02:49:28;31.40;;;13.07;;
20454;SDS011;10386;54.314;10.022;2023-03-03T02:51:57;30.10;;;12.90;;
20454;SDS011;10386;54.314;10.022;2023-03-03T02:54:26;24.53;;;11.23;;
20454;SDS011;10386;54.314;10.022;2023-03-03T02:56:56;28.47;;;12.83;;
20454;SDS011;10386;54.314;10.022;2023-03-03T02:59:23;22.20;;;10.57;;
20454;SDS011;10386;54.314;10.022;2023-03-03T03:01:50;25.50;;;10.77;;
20454;SDS011;10386;54.314;10.022;2023-03-03T03:04:19;22.03;;;10.33;;
20454;SDS011;10386;54.314;10.022;2023-03-03T03:06:51;28.07;;;11.00;;
20454;SDS011;10386;54.314;10.022;2023-03-03T03:09:19;22.33;;;11.20;;
20454;SDS011;10386;54.314;10.022;2023-03-03T03:11:47;25.83;;;11.07;;
20454;SDS011;10386;54.314;10.022;2023-03-03T03:14:14;26.47;;;12.13;;
20454;SDS011;10386;54.314;10.022;2023-03-03T03:16:40;24.77;;;11.17;;
20454;SDS011;10386;54.314;10.022;2023-03-03T03:19:07;25.50;;;12.17;;
20454;SDS011;10386;54.314;10.022;2023-03-03T03:21:34;28.47;;;11.50;;
20454;SDS011;10386;54.314;10.022;2023-03-03T03:24:01;26.03;;;12.03;;
20454;SDS011;10386;54.314;10.022;2023-03-03T03:26:28;25.33;;;11.20;;
20454;SDS011;10386;54.314;10.022;2023-03-03T03:28:54;25.87;;;11.93;;
20454;SDS011;10386;54.314;10.022;2023-03-03T03:31:21;23.40;;;10.90;;
20454;SDS011;10386;54.314;10.022;2023-03-03T03:33:48;25.73;;;12.23;;
20454;SDS011;10386;54.314;10.022;2023-03-03T03:36:15;25.13;;;10.53;;
20454;SDS011;10386;54.314;10.022;2023-03-03T03:38:42;25.73;;;11.83;;
20454;SDS011;10386;54.314;10.022;2023-03-03T03:41:09;24.87;;;10.67;;
20454;SDS011;10386;54.314;10.022;2023-03-03T03:43:37;23.10;;;10.83;;
20454;SDS011;10386;54.314;10.022;2023-03-03T03:46:04;24.00;;;11.33;;
20454;SDS011;10386;54.314;10.022;2023-03-03T03:48:31;23.37;;;10.30;;
20454;SDS011;10386;54.314;10.022;2023-03-03T03:50:58;22.70;;;10.37;;
20454;SDS011;10386;54.314;10.022;2023-03-03T03:53:25;23.03;;;11.00;;
20454;SDS011;10386;54.314;10.022;2023-03-03T03:55:52;18.97;;;9.20;;
20454;SDS011;10386;54.314;10.022;2023-03-03T03:58:18;22.07;;;10.57;;
20454;SDS011;10386;54.314;10.022;2023-03-03T04:00:46;21.60;;;10.67;;
20454;SDS011;10386;54.314;10.022;2023-03-03T04:03:12;22.77;;;10.47;;
20454;SDS011;10386;54.314;10.022;2023-03-03T04:05:40;19.53;;;9.60;;
20454;SDS011;10386;54.314;10.022;2023-03-03T04:08:07;23.87;;;10.97;;
20454;SDS011;10386;54.314;10.022;2023-03-03T04:10:34;23.00;;;10.17;;
20454;SDS011;10386;54.314;10.022;2023-03-03T04:13:01;20.93;;;10.03;;
20454;SDS011;10386;54.314;10.022;2023-03-03T04:15:28;24.73;;;10.77;;
20454;SDS011;10386;54.314;10.022;2023-03-03T04:17:54;20.30;;;10.07;;
20454;SDS011;10386;54.314;10.022;2023-03-03T04:20:22;20.77;;;10.47;;
20454;SDS011;10386;54.314;10.022;2023-03-03T04:22:48;17.40;;;9.20;;
20454;SDS011;10386;54.314;10.022;2023-03-03T04:25:15;22.10;;;9.83;;
20454;SDS011;10386;54.314;10.022;2023-03-03T04:27:43;23.57;;;10.77;;
20454;SDS011;10386;54.314;10.022;2023-03-03T04:30:10;18.07;;;9.13;;
20454;SDS011;10386;54.314;10.022;2023-03-03T04:32:39;21.13;;;9.83;;
20454;SDS011;10386;54.314;10.022;2023-03-03T04:35:06;20.50;;;10.13;;
20454;SDS011;10386;54.314;10.022;2023-03-03T04:37:35;19.00;;;9.23;;
20454;SDS011;10386;54.314;10.022;2023-03-03T04:40:03;20.97;;;9.17;;
20454;SDS011;10386;54.314;10.022;2023-03-03T04:42:32;16.57;;;9.10;;
20454;SDS011;10386;54.314;10.022;2023-03-03T04:44:59;19.33;;;9.43;;
20454;SDS011;10386;54.314;10.022;2023-03-03T04:47:26;19.73;;;9.23;;
20454;SDS011;10386;54.314;10.022;2023-03-03T04:49:52;22.10;;;10.07;;
20454;SDS011;10386;54.314;10.022;2023-03-03T04:52:19;20.90;;;9.43;;
20454;SDS011;10386;54.314;10.022;2023-03-03T04:54:46;17.00;;;9.50;;
20454;SDS011;10386;54.314;10.022;2023-03-03T04:57:13;21.67;;;9.13;;
20454;SDS011;10386;54.314;10.022;2023-03-03T04:59:39;27.20;;;10.10;;
20454;SDS011;10386;54.314;10.022;2023-03-03T05:02:06;28.40;;;9.67;;
20454;SDS011;10386;54.314;10.022;2023-03-03T05:04:33;21.77;;;9.70;;
20454;SDS011;10386;54.314;10.022;2023-03-03T05:07:00;21.27;;;9.93;;
20454;SDS011;10386;54.314;10.022;2023-03-03T05:09:27;24.37;;;10.13;;
20454;SDS011;10386;54.314;10.022;2023-03-03T05:11:54;32.83;;;11.33;;
20454;SDS011;10386;54.314;10.022;2023-03-03T05:14:20;27.97;;;10.57;;
20454;SDS011;10386;54.314;10.022;2023-03-03T05:16:47;27.47;;;10.07;;
20454;SDS011;10386;54.314;10.022;2023-03-03T05:19:14;24.40;;;10.23;;
20454;SDS011;10386;54.314;10.022;2023-03-03T05:21:41;17.63;;;9.07;;
20454;SDS011;10386;54.314;10.022;2023-03-03T05:24:08;25.70;;;10.67;;
20454;SDS011;10386;54.314;10.022;2023-03-03T05:26:36;26.40;;;9.93;;
20454;SDS011;10386;54.314;10.022;2023-03-03T05:29:04;20.47;;;10.10;;
20454;SDS011;10386;54.314;10.022;2023-03-03T05:31:32;21.60;;;10.10;;
20454;SDS011;10386;54.314;10.022;2023-03-03T05:33:59;21.57;;;9.97;;
20454;SDS011;10386;54.314;10.022;2023-03-03T05:36:26;30.53;;;11.70;;
20454;SDS011;10386;54.314;10.022;2023-03-03T05:38:52;27.40;;;11.17;;
20454;SDS011;10386;54.314;10.022;2023-03-03T05:41:19;26.07;;;10.10;;
20454;SDS011;10386;54.314;10.022;2023-03-03T05:43:46;29.50;;;10.47;;
20454;SDS011;10386;54.314;10.022;2023-03-03T05:46:13;24.37;;;10.20;;
20454;SDS011;10386;54.314;10.022;2023-03-03T05:48:39;27.23;;;10.73;;
20454;SDS011;10386;54.314;10.022;2023-03-03T05:51:06;20.93;;;9.73;;
20454;SDS011;10386;54.314;10.022;2023-03-03T05:53:33;34.10;;;10.70;;
20454;SDS011;10386;54.314;10.022;2023-03-03T05:56:00;25.93;;;10.60;;
20454;SDS011;10386;54.314;10.022;2023-03-03T05:58:27;21.50;;;10.30;;
20454;SDS011;10386;54.314;10.022;2023-03-03T06:00:54;19.63;;;9.50;;
20454;SDS011;10386;54.314;10.022;2023-03-03T06:03:21;20.67;;;9.53;;
20454;SDS011;10386;54.314;10.022;2023-03-03T06:05:47;32.00;;;10.63;;
20454;SDS011;10386;54.314;10.022;2023-03-03T06:08:14;79.10;;;11.47;;
20454;SDS011;10386;54.314;10.022;2023-03-03T06:10:41;27.63;;;10.37;;
20454;SDS011;10386;54.314;10.022;2023-03-03T06:13:08;22.93;;;9.80;;
20454;SDS011;10386;54.314;10.022;2023-03-03T06:15:35;39.67;;;10.00;;
20454;SDS011;10386;54.314;10.022;2023-03-03T06:18:01;30.77;;;10.03;;
20454;SDS011;10386;54.314;10.022;2023-03-03T06:20:28;32.27;;;9.43;;
20454;SDS011;10386;54.314;10.022;2023-03-03T06:22:55;19.03;;;9.63;;
20454;SDS011;10386;54.314;10.022;2023-03-03T06:25:22;18.87;;;9.60;;
20454;SDS011;10386;54.314;10.022;2023-03-03T06:27:52;25.13;;;9.33;;
20454;SDS011;10386;54.314;10.022;2023-03-03T06:30:19;23.80;;;8.50;;
20454;SDS011;10386;54.314;10.022;2023-03-03T06:32:46;40.23;;;9.50;;
20454;SDS011;10386;54.314;10.022;2023-03-03T06:35:13;29.33;;;8.30;;
20454;SDS011;10386;54.314;10.022;2023-03-03T06:37:40;19.17;;;8.47;;
20454;SDS011;10386;54.314;10.022;2023-03-03T06:40:07;19.10;;;7.77;;
20454;SDS011;10386;54.314;10.022;2023-03-03T06:42:34;16.70;;;7.90;;
20454;SDS011;10386;54.314;10.022;2023-03-03T06:45:01;24.57;;;7.43;;
20454;SDS011;10386;54.314;10.022;2023-03-03T06:47:27;35.93;;;7.90;;
20454;SDS011;10386;54.314;10.022;2023-03-03T06:49:54;25.90;;;8.60;;
20454;SDS011;10386;54.314;10.022;2023-03-03T06:52:22;20.93;;;8.33;;
20454;SDS011;10386;54.314;10.022;2023-03-03T06:54:52;23.80;;;8.70;;
20454;SDS011;10386;54.314;10.022;2023-03-03T06:57:28;18.77;;;8.77;;
20454;SDS011;10386;54.314;10.022;2023-03-03T06:59:58;18.40;;;7.97;;
20454;SDS011;10386;54.314;10.022;2023-03-03T07:02:36;22.10;;;8.60;;
20454;SDS011;10386;54.314;10.022;2023-03-03T07:05:05;18.97;;;8.40;;
20454;SDS011;10386;54.314;10.022;2023-03-03T07:07:36;22.33;;;8.93;;
20454;SDS011;10386;54.314;10.022;2023-03-03T07:10:05;27.73;;;8.37;;
20454;SDS011;10386;54.314;10.022;2023-03-03T07:12:38;15.97;;;8.53;;
20454;SDS011;10386;54.314;10.022;2023-03-03T07:15:12;29.43;;;9.57;;
20454;SDS011;10386;54.314;10.022;2023-03-03T07:17:45;15.03;;;7.93;;
20454;SDS011;10386;54.314;10.022;2023-03-03T07:20:23;32.60;;;9.77;;
20454;SDS011;10386;54.314;10.022;2023-03-03T07:22:57;18.60;;;8.20;;
20454;SDS011;10386;54.314;10.022;2023-03-03T07:28:06;37.53;;;10.50;;
20454;SDS011;10386;54.314;10.022;2023-03-03T07:30:45;19.63;;;8.93;;
20454;SDS011;10386;54.314;10.022;2023-03-03T07:33:17;34.53;;;10.10;;
20454;SDS011;10386;54.314;10.022;2023-03-03T07:35:57;25.07;;;9.20;;
20454;SDS011;10386;54.314;10.022;2023-03-03T07:41:11;26.77;;;9.07;;
20454;SDS011;10386;54.314;10.022;2023-03-03T07:43:42;23.90;;;8.67;;
20454;SDS011;10386;54.314;10.022;2023-03-03T07:46:22;23.43;;;9.13;;
20454;SDS011;10386;54.314;10.022;2023-03-03T07:48:54;39.17;;;9.77;;
20454;SDS011;10386;54.314;10.022;2023-03-03T07:56:39;18.07;;;7.50;;
20454;SDS011;10386;54.314;10.022;2023-03-03T07:59:15;18.20;;;8.53;;
20454;SDS011;10386;54.314;10.022;2023-03-03T08:01:49;22.87;;;8.77;;
20454;SDS011;10386;54.314;10.022;2023-03-03T08:07:08;18.77;;;8.40;;
20454;SDS011;10386;54.314;10.022;2023-03-03T08:09:48;25.17;;;8.23;;
20454;SDS011;10386;54.314;10.022;2023-03-03T08:12:19;19.47;;;8.03;;
20454;SDS011;10386;54.314;10.022;2023-03-03T08:15:16;17.23;;;7.77;;
20454;SDS011;10386;54.314;10.022;2023-03-03T08:17:46;16.00;;;7.53;;
20454;SDS011;10386;54.314;10.022;2023-03-03T08:23:12;14.97;;;8.43;;
20454;SDS011;10386;54.314;10.022;2023-03-03T08:25:40;11.13;;;7.60;;
20454;SDS011;10386;54.314;10.022;2023-03-03T08:28:08;15.67;;;7.13;;
20454;SDS011;10386;54.314;10.022;2023-03-03T08:30:36;15.40;;;7.43;;
20454;SDS011;10386;54.314;10.022;2023-03-03T08:33:02;14.50;;;7.73;;
20454;SDS011;10386;54.314;10.022;2023-03-03T08:35:29;12.63;;;7.63;;
20454;SDS011;10386;54.314;10.022;2023-03-03T08:37:56;12.83;;;6.90;;
20454;SDS011;10386;54.314;10.022;2023-03-03T08:40:23;11.93;;;7.40;;
20454;SDS011;10386;54.314;10.022;2023-03-03T08:42:50;13.07;;;7.20;;
20454;SDS011;10386;54.314;10.022;2023-03-03T08:45:17;11.57;;;7.10;;
20454;SDS011;10386;54.314;10.022;2023-03-03T08:47:43;11.20;;;7.70;;
20454;SDS011;10386;54.314;10.022;2023-03-03T08:50:11;12.17;;;7.30;;
20454;SDS011;10386;54.314;10.022;2023-03-03T08:52:39;11.57;;;6.50;;
20454;SDS011;10386;54.314;10.022;2023-03-03T08:55:05;10.23;;;6.27;;
20454;SDS011;10386;54.314;10.022;2023-03-03T08:57:34;9.90;;;6.40;;
20454;SDS011;10386;54.314;10.022;2023-03-03T09:00:01;9.23;;;6.27;;
20454;SDS011;10386;54.314;10.022;2023-03-03T09:02:27;12.20;;;6.60;;
20454;SDS011;10386;54.314;10.022;2023-03-03T09:04:54;12.23;;;6.13;;
20454;SDS011;10386;54.314;10.022;2023-03-03T09:07:21;8.80;;;6.60;;
20454;SDS011;10386;54.314;10.022;2023-03-03T09:09:48;11.90;;;6.40;;
20454;SDS011;10386;54.314;10.022;2023-03-03T09:12:18;8.63;;;5.60;;
20454;SDS011;10386;54.314;10.022;2023-03-03T09:14:57;9.97;;;5.90;;
20454;SDS011;10386;54.314;10.022;2023-03-03T09:17:29;8.07;;;5.37;;
20454;SDS011;10386;54.314;10.022;2023-03-03T09:20:01;10.13;;;6.00;;
20454;SDS011;10386;54.314;10.022;2023-03-03T09:22:42;7.10;;;5.20;;
20454;SDS011;10386;54.314;10.022;2023-03-03T09:25:17;11.93;;;5.93;;
20454;SDS011;10386;54.314;10.022;2023-03-03T09:27:53;11.50;;;6.33;;
20454;SDS011;10386;54.314;10.022;2023-03-03T09:32:53;9.53;;;5.37;;
20454;SDS011;10386;54.314;10.022;2023-03-03T09:51:55;6.80;;;3.60;;
20454;SDS011;10386;54.314;10.022;2023-03-03T09:57:42;6.27;;;3.53;;
20454;SDS011;10386;54.314;10.022;2023-03-03T10:00:46;5.37;;;3.47;;
20454;SDS011;10386;54.314;10.022;2023-03-03T10:06:08;7.27;;;3.27;;
20454;SDS011;10386;54.314;10.022;2023-03-03T10:14:20;9.57;;;3.87;;
20454;SDS011;10386;54.314;10.022;2023-03-03T10:19:40;6.17;;;3.10;;
20454;SDS011;10386;54.314;10.022;2023-03-03T10:22:44;5.27;;;3.10;;
20454;SDS011;10386;54.314;10.022;2023-03-03T10:25:22;6.60;;;2.93;;
20454;SDS011;10386;54.314;10.022;2023-03-03T10:28:20;6.67;;;3.47;;
20454;SDS011;10386;54.314;10.022;2023-03-03T10:37:07;7.27;;;3.33;;
20454;SDS011;10386;54.314;10.022;2023-03-03T10:39:54;8.77;;;3.27;;
20454;SDS011;10386;54.314;10.022;2023-03-03T10:42:48;7.50;;;3.27;;
20454;SDS011;10386;54.314;10.022;2023-03-03T10:45:39;6.17;;;3.40;;
20454;SDS011;10386;54.314;10.022;2023-03-03T10:51:25;5.63;;;3.17;;
20454;SDS011;10386;54.314;10.022;2023-03-03T10:56:58;8.23;;;3.87;;
20454;SDS011;10386;54.314;10.022;2023-03-03T11:10:29;7.97;;;3.50;;
20454;SDS011;10386;54.314;10.022;2023-03-03T11:21:43;7.40;;;3.00;;
20454;SDS011;10386;54.314;10.022;2023-03-03T11:30:52;7.27;;;2.73;;
20454;SDS011;10386;54.314;10.022;2023-03-03T11:43:58;8.80;;;3.17;;
20454;SDS011;10386;54.314;10.022;2023-03-03T11:46:38;4.43;;;2.73;;
20454;SDS011;10386;54.314;10.022;2023-03-03T11:49:21;9.87;;;3.23;;
20454;SDS011;10386;54.314;10.022;2023-03-03T11:58:11;7.53;;;2.83;;
20454;SDS011;10386;54.314;10.022;2023-03-03T12:00:50;8.37;;;3.30;;
20454;SDS011;10386;54.314;10.022;2023-03-03T12:06:05;8.50;;;3.40;;
20454;SDS011;10386;54.314;10.022;2023-03-03T12:27:21;13.30;;;3.00;;
20454;SDS011;10386;54.314;10.022;2023-03-03T12:33:02;7.73;;;2.40;;
20454;SDS011;10386;54.314;10.022;2023-03-03T12:35:48;10.13;;;2.53;;
20454;SDS011;10386;54.314;10.022;2023-03-03T12:40:56;14.40;;;3.50;;
20454;SDS011;10386;54.314;10.022;2023-03-03T12:43:41;10.13;;;2.47;;
20454;SDS011;10386;54.314;10.022;2023-03-03T12:46:43;9.53;;;2.43;;
20454;SDS011;10386;54.314;10.022;2023-03-03T12:49:23;11.83;;;2.63;;
20454;SDS011;10386;54.314;10.022;2023-03-03T12:52:22;13.30;;;2.33;;
20454;SDS011;10386;54.314;10.022;2023-03-03T12:55:10;12.37;;;2.47;;
20454;SDS011;10386;54.314;10.022;2023-03-03T12:57:43;8.13;;;2.83;;
20454;SDS011;10386;54.314;10.022;2023-03-03T13:11:41;12.47;;;2.63;;
20454;SDS011;10386;54.314;10.022;2023-03-03T13:14:23;10.67;;;2.53;;
20454;SDS011;10386;54.314;10.022;2023-03-03T13:17:01;9.43;;;2.90;;
20454;SDS011;10386;54.314;10.022;2023-03-03T13:23:45;16.03;;;2.77;;
20454;SDS011;10386;54.314;10.022;2023-03-03T13:26:08;14.10;;;2.30;;
20454;SDS011;10386;54.314;10.022;2023-03-03T13:28:44;14.90;;;2.87;;
20454;SDS011;10386;54.314;10.022;2023-03-03T13:31:22;6.53;;;2.70;;
20454;SDS011;10386;54.314;10.022;2023-03-03T13:33:54;11.60;;;2.60;;
20454;SDS011;10386;54.314;10.022;2023-03-03T13:36:24;9.27;;;3.20;;
20454;SDS011;10386;54.314;10.022;2023-03-03T13:38:58;14.03;;;2.67;;
20454;SDS011;10386;54.314;10.022;2023-03-03T13:44:33;14.00;;;3.20;;
20454;SDS011;10386;54.314;10.022;2023-03-03T13:52:18;7.47;;;2.60;;
20454;SDS011;10386;54.314;10.022;2023-03-03T13:57:41;12.50;;;2.60;;
20454;SDS011;10386;54.314;10.022;2023-03-03T14:03:00;10.87;;;2.90;;
20454;SDS011;10386;54.314;10.022;2023-03-03T14:05:40;11.27;;;2.73;;
20454;SDS011;10386;54.314;10.022;2023-03-03T14:21:48;10.63;;;3.07;;
20454;SDS011;10386;54.314;10.022;2023-03-03T14:24:22;16.80;;;3.23;;
20454;SDS011;10386;54.314;10.022;2023-03-03T14:26:53;19.60;;;3.70;;
20454;SDS011;10386;54.314;10.022;2023-03-03T14:31:52;13.30;;;3.03;;
20454;SDS011;10386;54.314;10.022;2023-03-03T14:36:49;16.37;;;3.43;;
20454;SDS011;10386;54.314;10.022;2023-03-03T14:39:34;17.63;;;3.13;;
20454;SDS011;10386;54.314;10.022;2023-03-03T14:42:13;19.00;;;3.20;;
20454;SDS011;10386;54.314;10.022;2023-03-03T14:45:22;18.27;;;3.40;;
20454;SDS011;10386;54.314;10.022;2023-03-03T14:47:57;16.67;;;3.80;;
20454;SDS011;10386;54.314;10.022;2023-03-03T14:50:31;20.47;;;3.53;;
20454;SDS011;10386;54.314;10.022;2023-03-03T14:53:11;17.93;;;3.90;;
20454;SDS011;10386;54.314;10.022;2023-03-03T14:55:42;20.63;;;3.93;;
20454;SDS011;10386;54.314;10.022;2023-03-03T15:01:12;20.20;;;3.90;;
20454;SDS011;10386;54.314;10.022;2023-03-03T15:03:46;18.67;;;3.20;;
20454;SDS011;10386;54.314;10.022;2023-03-03T15:06:40;23.13;;;4.33;;
20454;SDS011;10386;54.314;10.022;2023-03-03T15:09:20;21.17;;;4.13;;
20454;SDS011;10386;54.314;10.022;2023-03-03T15:11:53;37.03;;;5.43;;
20454;SDS011;10386;54.314;10.022;2023-03-03T15:17:23;17.20;;;3.83;;
20454;SDS011;10386;54.314;10.022;2023-03-03T15:28:11;30.33;;;5.43;;
20454;SDS011;10386;54.314;10.022;2023-03-03T15:38:54;22.70;;;4.20;;
20454;SDS011;10386;54.314;10.022;2023-03-03T16:01:14;29.63;;;4.40;;
20454;SDS011;10386;54.314;10.022;2023-03-03T16:04:32;16.60;;;3.87;;
20454;SDS011;10386;54.314;10.022;2023-03-03T16:06:37;18.37;;;3.57;;
20454;SDS011;10386;54.314;10.022;2023-03-03T16:12:23;21.83;;;3.80;;
20454;SDS011;10386;54.314;10.022;2023-03-03T16:15:16;20.87;;;2.80;;
20454;SDS011;10386;54.314;10.022;2023-03-03T16:20:32;35.03;;;4.53;;
20454;SDS011;10386;54.314;10.022;2023-03-03T16:29:14;22.33;;;3.27;;
20454;SDS011;10386;54.314;10.022;2023-03-03T16:31:51;21.97;;;3.73;;
20454;SDS011;10386;54.314;10.022;2023-03-03T16:42:50;23.60;;;3.47;;
20454;SDS011;10386;54.314;10.022;2023-03-03T16:45:34;24.20;;;3.90;;
20454;SDS011;10386;54.314;10.022;2023-03-03T16:48:25;28.53;;;3.97;;
20454;SDS011;10386;54.314;10.022;2023-03-03T17:06:58;31.43;;;4.33;;
20454;SDS011;10386;54.314;10.022;2023-03-03T17:15:38;38.33;;;6.50;;
20454;SDS011;10386;54.314;10.022;2023-03-03T17:30:05;34.80;;;5.00;;
20454;SDS011;10386;54.314;10.022;2023-03-03T17:38:07;23.30;;;5.33;;
20454;SDS011;10386;54.314;10.022;2023-03-03T17:46:27;23.10;;;4.67;;
20454;SDS011;10386;54.314;10.022;2023-03-03T17:51:40;19.97;;;4.87;;
20454;SDS011;10386;54.314;10.022;2023-03-03T18:03:11;32.73;;;5.00;;
20454;SDS011;10386;54.314;10.022;2023-03-03T18:08:48;25.40;;;5.37;;
20454;SDS011;10386;54.314;10.022;2023-03-03T18:12:15;26.07;;;5.07;;
20454;SDS011;10386;54.314;10.022;2023-03-03T18:14:45;28.57;;;6.00;;
20454;SDS011;10386;54.314;10.022;2023-03-03T18:29:31;24.33;;;5.07;;
20454;SDS011;10386;54.314;10.022;2023-03-03T18:34:30;17.73;;;5.60;;
20454;SDS011;10386;54.314;10.022;2023-03-03T18:37:46;34.73;;;5.87;;
20454;SDS011;10386;54.314;10.022;2023-03-03T18:43:36;24.70;;;5.40;;
20454;SDS011;10386;54.314;10.022;2023-03-03T18:46:04;28.00;;;5.57;;
20454;SDS011;10386;54.314;10.022;2023-03-03T18:54:04;26.60;;;5.20;;
20454;SDS011;10386;54.314;10.022;2023-03-03T18:56:41;32.17;;;4.73;;
20454;SDS011;10386;54.314;10.022;2023-03-03T19:02:07;19.10;;;4.70;;
20454;SDS011;10386;54.314;10.022;2023-03-03T19:07:25;34.03;;;5.30;;
20454;SDS011;10386;54.314;10.022;2023-03-03T19:18:00;32.40;;;4.97;;
20454;SDS011;10386;54.314;10.022;2023-03-03T19:20:44;26.03;;;5.00;;
20454;SDS011;10386;54.314;10.022;2023-03-03T19:23:21;20.87;;;4.33;;
20454;SDS011;10386;54.314;10.022;2023-03-03T19:34:11;28.70;;;5.40;;
20454;SDS011;10386;54.314;10.022;2023-03-03T19:47:41;29.93;;;4.53;;
20454;SDS011;10386;54.314;10.022;2023-03-03T19:58:45;29.67;;;5.00;;
20454;SDS011;10386;54.314;10.022;2023-03-03T20:01:40;32.80;;;5.20;;
20454;SDS011;10386;54.314;10.022;2023-03-03T20:06:55;30.40;;;5.43;;
20454;SDS011;10386;54.314;10.022;2023-03-03T20:23:12;35.33;;;7.27;;
20454;SDS011;10386;54.314;10.022;2023-03-03T20:25:47;30.03;;;5.67;;
20454;SDS011;10386;54.314;10.022;2023-03-03T20:28:44;40.07;;;4.77;;
20454;SDS011;10386;54.314;10.022;2023-03-03T20:34:11;25.40;;;5.50;;
20454;SDS011;10386;54.314;10.022;2023-03-03T20:45:00;31.03;;;5.40;;
20454;SDS011;10386;54.314;10.022;2023-03-03T20:53:05;38.80;;;4.90;;
20454;SDS011;10386;54.314;10.022;2023-03-03T21:02:01;25.47;;;4.50;;
20454;SDS011;10386;54.314;10.022;2023-03-03T21:04:39;25.03;;;4.50;;
20454;SDS011;10386;54.314;10.022;2023-03-03T21:07:05;28.67;;;5.23;;
20454;SDS011;10386;54.314;10.022;2023-03-03T21:09:37;25.63;;;4.50;;
20454;SDS011;10386;54.314;10.022;2023-03-03T21:12:24;24.07;;;4.80;;
20454;SDS011;10386;54.314;10.022;2023-03-03T21:15:37;30.33;;;4.67;;
20454;SDS011;10386;54.314;10.022;2023-03-03T21:17:57;20.13;;;4.23;;
20454;SDS011;10386;54.314;10.022;2023-03-03T21:22:59;35.50;;;5.37;;
20454;SDS011;10386;54.314;10.022;2023-03-03T21:25:49;21.10;;;4.43;;
20454;SDS011;10386;54.314;10.022;2023-03-03T21:28:19;26.03;;;3.90;;
20454;SDS011;10386;54.314;10.022;2023-03-03T21:31:08;26.30;;;4.03;;
20454;SDS011;10386;54.314;10.022;2023-03-03T21:33:50;30.13;;;4.43;;
20454;SDS011;10386;54.314;10.022;2023-03-03T21:38:57;28.67;;;4.60;;
20454;SDS011;10386;54.314;10.022;2023-03-03T21:41:23;23.47;;;3.80;;
20454;SDS011;10386;54.314;10.022;2023-03-03T21:43:51;15.30;;;3.60;;
20454;SDS011;10386;54.314;10.022;2023-03-03T21:46:19;29.87;;;4.30;;
20454;SDS011;10386;54.314;10.022;2023-03-03T21:48:50;25.30;;;5.27;;
20454;SDS011;10386;54.314;10.022;2023-03-03T21:51:17;30.30;;;5.27;;
20454;SDS011;10386;54.314;10.022;2023-03-03T21:53:45;33.80;;;5.53;;
20454;SDS011;10386;54.314;10.022;2023-03-03T21:56:13;25.33;;;4.77;;
20454;SDS011;10386;54.314;10.022;2023-03-03T21:58:40;27.83;;;4.77;;